createdAt,value
2023-03-06T00:00:01.850Z,100675.16
2023-03-06T00:02:28.927Z,100674.63
2023-03-06T00:04:57.457Z,100672.19
2023-03-06T00:07:24.476Z,100663.66
2023-03-06T00:09:51.472Z,100668.59
2023-03-06T00:12:18.582Z,100666.47
2023-03-06T00:14:45.562Z,100664.84
2023-03-06T00:17:12.548Z,100663.69
2023-03-06T00:19:39.660Z,100662.19
2023-03-06T00:22:10.241Z,100657.78
2023-03-06T00:24:37.217Z,100662.19
2023-03-06T00:27:04.793Z,100662.03
2023-03-06T00:29:31.682Z,100655.16
2023-03-06T00:31:58.812Z,100654.66
2023-03-06T00:34:26.135Z,100643.88
2023-03-06T00:36:53.434Z,100651.72
2023-03-06T00:39:22.286Z,100644.38
2023-03-06T00:41:49.221Z,100649.06
2023-03-06T00:44:16.193Z,100637.16
2023-03-06T00:46:43.410Z,100646.44
2023-03-06T00:49:10.394Z,100632.38
2023-03-06T00:51:37.334Z,100639.59
2023-03-06T00:54:04.280Z,100635.66
2023-03-06T00:56:32.554Z,100640.56
2023-03-06T00:58:59.667Z,100631.91
2023-03-06T01:01:26.708Z,100635.00
2023-03-06T01:03:53.675Z,100630.75
2023-03-06T01:06:20.821Z,100615.41
2023-03-06T01:08:47.932Z,100620.44
2023-03-06T01:11:14.923Z,100623.06
2023-03-06T01:13:44.260Z,100618.47
2023-03-06T01:16:13.740Z,100629.59
2023-03-06T01:18:40.888Z,100616.34
2023-03-06T01:21:08.520Z,100619.78
2023-03-06T01:23:35.617Z,100615.41
2023-03-06T01:26:02.922Z,100618.03
2023-03-06T01:28:30.080Z,100612.66
2023-03-06T01:30:58.497Z,100607.41
2023-03-06T01:33:25.486Z,100612.47
2023-03-06T01:35:52.540Z,100610.50
2023-03-06T01:38:19.752Z,100605.88
2023-03-06T01:40:47.251Z,100607.19
2023-03-06T01:43:27.183Z,100609.97
2023-03-06T01:46:23.743Z,100605.72
2023-03-06T01:48:54.162Z,100604.94
2023-03-06T01:51:21.772Z,100596.75
2023-03-06T01:53:50.650Z,100604.44
2023-03-06T01:56:18.253Z,100588.28
2023-03-06T01:58:46.005Z,100580.59
2023-03-06T02:01:14.784Z,100593.00
2023-03-06T02:03:43.944Z,100590.69
2023-03-06T02:06:11.493Z,100580.88
2023-03-06T02:08:39.709Z,100586.13
2023-03-06T02:11:15.608Z,100583.50
2023-03-06T02:13:44.632Z,100572.75
2023-03-06T02:16:16.605Z,100562.78
2023-03-06T02:18:46.879Z,100559.34
2023-03-06T02:21:20.398Z,100567.69
2023-03-06T02:24:01.754Z,100561.47
2023-03-06T02:26:33.251Z,100551.66
2023-03-06T02:29:00.622Z,100544.63
2023-03-06T02:31:30.830Z,100549.25
2023-03-06T02:34:03.521Z,100548.72
2023-03-06T02:36:32.015Z,100546.78
2023-03-06T02:38:59.812Z,100538.78
2023-03-06T02:41:27.123Z,100539.91
2023-03-06T02:43:55.980Z,100543.84
2023-03-06T02:46:25.978Z,100535.34
2023-03-06T02:48:59.097Z,100531.25
2023-03-06T02:51:26.364Z,100529.59
2023-03-06T02:53:54.432Z,100518.16
2023-03-06T02:56:21.618Z,100521.09
2023-03-06T02:58:49.573Z,100518.81
2023-03-06T03:01:18.354Z,100519.59
2023-03-06T03:03:45.729Z,100519.97
2023-03-06T03:06:12.663Z,100512.31
2023-03-06T03:08:39.630Z,100513.41
2023-03-06T03:11:14.883Z,100515.06
2023-03-06T03:13:41.902Z,100519.97
2023-03-06T03:16:14.117Z,100517.38
2023-03-06T03:18:45.176Z,100511.66
2023-03-06T03:21:13.797Z,100504.13
2023-03-06T03:23:43.454Z,100509.34
2023-03-06T03:26:13.494Z,100506.25
2023-03-06T03:28:41.248Z,100501.66
2023-03-06T03:31:10.041Z,100493.31
2023-03-06T03:33:37.297Z,100504.44
2023-03-06T03:36:07.776Z,100493.84
2023-03-06T03:38:41.166Z,100499.03
2023-03-06T03:41:08.135Z,100490.38
2023-03-06T03:43:36.351Z,100493.47
2023-03-06T03:46:03.450Z,100489.22
2023-03-06T03:48:30.510Z,100484.84
2023-03-06T03:51:07.546Z,100484.53
2023-03-06T03:53:34.693Z,100482.38
2023-03-06T03:56:01.783Z,100480.09
2023-03-06T03:58:28.925Z,100476.00
2023-03-06T04:00:55.943Z,100476.63
2023-03-06T04:03:23.100Z,100471.91
2023-03-06T04:05:50.187Z,100478.59
2023-03-06T04:08:18.622Z,100475.53
2023-03-06T04:10:45.756Z,100470.63
2023-03-06T04:13:13.003Z,100469.47
2023-03-06T04:15:40.524Z,100461.97
2023-03-06T04:18:07.597Z,100458.53
2023-03-06T04:20:35.191Z,100453.63
2023-03-06T04:23:02.292Z,100456.25
2023-03-06T04:25:30.641Z,100452.81
2023-03-06T04:27:57.787Z,100450.84
2023-03-06T04:30:24.896Z,100451.19
2023-03-06T04:32:52.012Z,100453.97
2023-03-06T04:35:25.639Z,100456.09
2023-03-06T04:37:56.731Z,100451.84
2023-03-06T04:40:28.773Z,100446.59
2023-03-06T04:42:59.733Z,100441.69
2023-03-06T04:45:29.714Z,100443.81
2023-03-06T04:47:57.305Z,100439.72
2023-03-06T04:50:26.045Z,100441.53
2023-03-06T04:52:53.688Z,100438.56
2023-03-06T04:55:20.939Z,100432.22
2023-03-06T04:57:48.462Z,100432.06
2023-03-06T05:00:19.943Z,100431.75
2023-03-06T05:02:47.890Z,100435.00
2023-03-06T05:05:18.406Z,100439.41
2023-03-06T05:07:46.374Z,100437.97
2023-03-06T05:10:15.993Z,100440.09
2023-03-06T05:12:43.791Z,100438.56
2023-03-06T05:15:12.586Z,100428.13
2023-03-06T05:17:41.164Z,100425.84
2023-03-06T05:20:10.455Z,100424.69
2023-03-06T05:22:37.488Z,100423.06
2023-03-06T05:25:05.480Z,100420.44
2023-03-06T05:27:32.584Z,100418.97
2023-03-06T05:29:59.927Z,100420.13
2023-03-06T05:32:27.051Z,100421.91
2023-03-06T05:34:55.719Z,100420.63
2023-03-06T05:37:23.456Z,100418.31
2023-03-06T05:39:51.044Z,100418.97
2023-03-06T05:42:18.564Z,100421.09
2023-03-06T05:44:45.859Z,100425.03
2023-03-06T05:47:13.458Z,100418.81
2023-03-06T05:49:40.887Z,100422.91
2023-03-06T05:52:09.482Z,100414.91
2023-03-06T05:54:37.366Z,100420.94
2023-03-06T05:57:05.512Z,100416.03
2023-03-06T05:59:33.393Z,100416.88
2023-03-06T06:02:00.958Z,100420.94
2023-03-06T06:04:28.141Z,100420.78
2023-03-06T06:06:57.175Z,100417.50
2023-03-06T06:09:26.546Z,100423.72
2023-03-06T06:11:54.791Z,100420.63
2023-03-06T06:14:22.164Z,100421.44
2023-03-06T06:16:49.616Z,100419.31
2023-03-06T06:19:20.395Z,100421.94
2023-03-06T06:21:48.954Z,100423.41
2023-03-06T06:24:17.469Z,100423.72
2023-03-06T06:26:46.489Z,100421.44
2023-03-06T06:29:14.067Z,100410.34
2023-03-06T06:31:41.563Z,100407.72
2023-03-06T06:34:10.459Z,100408.88
2023-03-06T06:36:38.475Z,100410.00
2023-03-06T06:39:05.986Z,100418.50
2023-03-06T06:41:53.107Z,100408.22
2023-03-06T06:44:21.386Z,100404.44
2023-03-06T06:47:21.393Z,100401.84
2023-03-06T06:49:37.240Z,100399.22
2023-03-06T06:52:05.081Z,100396.59
2023-03-06T06:54:32.904Z,100399.06
2023-03-06T06:57:00.471Z,100395.16
2023-03-06T06:59:28.886Z,100395.47
2023-03-06T07:01:55.869Z,100391.88
2023-03-06T07:04:22.932Z,100397.44
2023-03-06T07:06:49.992Z,100388.59
2023-03-06T07:09:16.969Z,100389.44
2023-03-06T07:11:43.976Z,100392.22
2023-03-06T07:14:10.834Z,100387.78
2023-03-06T07:16:39.874Z,100385.16
2023-03-06T07:19:07.058Z,100384.34
2023-03-06T07:21:34.086Z,100389.38
2023-03-06T07:24:01.295Z,100388.25
2023-03-06T07:26:28.795Z,100396.91
2023-03-06T07:28:55.874Z,100395.41
2023-03-06T07:31:25.328Z,100394.25
2023-03-06T07:33:54.681Z,100394.59
2023-03-06T07:36:23.105Z,100389.66
2023-03-06T07:38:50.385Z,100383.97
2023-03-06T07:41:21.784Z,100388.22
2023-03-06T07:43:49.884Z,100388.03
2023-03-06T07:46:17.354Z,100392.13
2023-03-06T07:48:44.821Z,100409.09
2023-03-06T07:51:16.535Z,100417.91
2023-03-06T07:53:43.824Z,100407.56
2023-03-06T07:56:12.155Z,100411.88
2023-03-06T07:58:41.087Z,100407.66
2023-03-06T08:01:11.253Z,100410.38
2023-03-06T08:03:38.527Z,100415.47
2023-03-06T08:06:07.351Z,100419.41
2023-03-06T08:08:36.286Z,100422.22
2023-03-06T08:11:03.856Z,100430.44
2023-03-06T08:13:30.895Z,100432.44
2023-03-06T08:15:59.852Z,100434.00
2023-03-06T08:18:27.627Z,100431.66
2023-03-06T08:21:02.835Z,100428.22
2023-03-06T08:23:30.226Z,100433.59
2023-03-06T08:26:00.251Z,100436.81
2023-03-06T08:28:28.712Z,100435.13
2023-03-06T08:30:55.896Z,100425.03
2023-03-06T08:33:23.403Z,100429.81
2023-03-06T08:35:50.529Z,100429.44
2023-03-06T08:38:17.666Z,100424.44
2023-03-06T08:40:44.752Z,100428.19
2023-03-06T08:43:14.324Z,100435.72
2023-03-06T08:45:41.427Z,100433.59
2023-03-06T08:48:08.428Z,100442.44
2023-03-06T08:50:35.503Z,100443.66
2023-03-06T08:53:02.749Z,100445.66
2023-03-06T08:55:30.246Z,100436.88
2023-03-06T08:57:58.643Z,100437.94
2023-03-06T09:00:27.184Z,100443.06
2023-03-06T09:02:54.296Z,100443.28
2023-03-06T09:05:21.372Z,100450.53
2023-03-06T09:07:48.391Z,100449.03
2023-03-06T09:10:18.514Z,100444.97
2023-03-06T09:12:51.500Z,100451.06
2023-03-06T09:15:20.707Z,100452.31
2023-03-06T09:17:49.289Z,100453.22
2023-03-06T09:20:17.457Z,100448.25
2023-03-06T09:22:45.776Z,100446.25
2023-03-06T09:25:14.185Z,100441.09
2023-03-06T09:27:41.370Z,100439.28
2023-03-06T09:30:09.838Z,100435.41
2023-03-06T09:32:36.929Z,100437.19
2023-03-06T09:35:06.369Z,100437.16
2023-03-06T09:37:33.539Z,100431.38
2023-03-06T09:40:00.490Z,100425.03
2023-03-06T09:42:29.028Z,100431.31
2023-03-06T09:44:58.977Z,100418.25
2023-03-06T09:47:41.011Z,100415.13
2023-03-06T09:50:19.718Z,100423.91
2023-03-06T09:52:58.414Z,100415.59
2023-03-06T09:55:29.050Z,100419.97
2023-03-06T09:58:01.385Z,100414.19
2023-03-06T10:00:34.092Z,100408.31
2023-03-06T10:03:15.094Z,100412.25
2023-03-06T10:05:47.405Z,100409.81
2023-03-06T10:08:24.340Z,100407.31
2023-03-06T10:10:57.853Z,100410.16
2023-03-06T10:13:30.219Z,100404.34
2023-03-06T10:16:06.501Z,100403.19
2023-03-06T10:18:33.685Z,100401.69
2023-03-06T10:21:18.782Z,100403.88
2023-03-06T10:23:54.011Z,100411.25
2023-03-06T10:26:25.483Z,100398.91
2023-03-06T10:29:06.933Z,100404.13
2023-03-06T10:31:34.978Z,100398.66
2023-03-06T10:34:16.099Z,100390.75
2023-03-06T10:36:44.567Z,100396.31
2023-03-06T10:39:17.066Z,100395.03
2023-03-06T10:41:46.015Z,100382.13
2023-03-06T10:44:24.222Z,100381.34
2023-03-06T10:46:54.141Z,100373.03
2023-03-06T10:49:39.041Z,100374.38
2023-03-06T10:52:21.803Z,100376.97
2023-03-06T10:54:49.262Z,100367.56
2023-03-06T10:57:27.603Z,100367.56
2023-03-06T10:59:56.947Z,100362.47
2023-03-06T11:02:28.613Z,100370.59
2023-03-06T11:04:57.467Z,100374.97
2023-03-06T11:07:28.265Z,100371.97
2023-03-06T11:10:16.153Z,100372.91
2023-03-06T11:12:43.832Z,100369.19
2023-03-06T11:15:23.526Z,100363.22
2023-03-06T11:17:57.837Z,100368.25
2023-03-06T11:20:30.292Z,100361.84
2023-03-06T11:23:07.246Z,100358.06
2023-03-06T11:25:40.187Z,100370.97
2023-03-06T11:28:13.747Z,100360.25
2023-03-06T11:30:46.365Z,100364.25
2023-03-06T11:33:22.531Z,100362.66
2023-03-06T11:35:58.571Z,100359.84
2023-03-06T11:38:42.468Z,100357.44
2023-03-06T11:41:20.254Z,100351.38
2023-03-06T11:43:55.666Z,100354.44
2023-03-06T11:46:27.559Z,100349.38
2023-03-06T11:48:59.487Z,100344.19
2023-03-06T11:51:30.384Z,100338.66
2023-03-06T11:54:00.595Z,100337.31
2023-03-06T11:56:36.412Z,100337.94
2023-03-06T11:59:57.240Z,100336.13
2023-03-06T12:02:40.970Z,100331.59
2023-03-06T12:05:33.465Z,100329.03
2023-03-06T12:08:16.257Z,100323.41
2023-03-06T12:10:51.784Z,100311.66
2023-03-06T12:16:46.161Z,100294.69
2023-03-06T12:19:25.397Z,100291.16
2023-03-06T12:22:14.830Z,100291.63
2023-03-06T12:24:53.980Z,100287.63
2023-03-06T12:27:34.828Z,100281.16
2023-03-06T12:30:37.908Z,100279.03
2023-03-06T12:33:17.514Z,100277.34
2023-03-06T12:35:56.703Z,100259.03
2023-03-06T12:38:44.012Z,100276.88
2023-03-06T12:41:28.383Z,100266.34
2023-03-06T12:44:27.080Z,100270.97
2023-03-06T12:46:58.083Z,100269.47
2023-03-06T12:49:32.480Z,100261.38
2023-03-06T12:52:02.281Z,100256.22
2023-03-06T12:54:31.577Z,100250.47
2023-03-06T12:57:00.937Z,100262.50
2023-03-06T12:59:44.859Z,100260.06
2023-03-06T13:02:32.972Z,100258.06
2023-03-06T13:05:21.692Z,100247.44
2023-03-06T13:08:00.983Z,100247.09
2023-03-06T13:10:30.993Z,100248.47
2023-03-06T13:13:00.937Z,100228.94
2023-03-06T13:15:41.327Z,100234.63
2023-03-06T13:18:57.353Z,100240.13
2023-03-06T13:21:43.898Z,100232.41
2023-03-06T13:24:17.606Z,100216.94
2023-03-06T13:26:50.871Z,100207.41
2023-03-06T13:30:00.726Z,100208.31
2023-03-06T13:32:34.878Z,100204.69
2023-03-06T13:35:02.299Z,100208.13
2023-03-06T13:37:53.434Z,100216.94
2023-03-06T13:40:31.999Z,100201.59
2023-03-06T13:43:19.078Z,100205.16
2023-03-06T13:45:48.270Z,100195.53
2023-03-06T13:48:43.796Z,100192.94
2023-03-06T13:51:23.317Z,100182.38
2023-03-06T13:54:17.417Z,100184.69
2023-03-06T13:57:23.409Z,100180.47
2023-03-06T14:00:21.440Z,100184.03
2023-03-06T14:03:20.334Z,100185.63
2023-03-06T14:05:50.776Z,100168.03
2023-03-06T14:08:19.962Z,100174.91
2023-03-06T14:10:57.922Z,100172.09
2023-03-06T14:13:35.211Z,100168.22
2023-03-06T14:16:11.583Z,100170.84
2023-03-06T14:18:43.475Z,100161.63
2023-03-06T14:21:14.713Z,100152.81
2023-03-06T14:23:43.493Z,100155.63
2023-03-06T14:26:15.706Z,100152.94
2023-03-06T14:28:43.941Z,100153.81
2023-03-06T14:31:17.846Z,100151.22
2023-03-06T14:33:51.370Z,100150.31
2023-03-06T14:36:21.728Z,100149.81
2023-03-06T14:38:52.784Z,100145.16
2023-03-06T14:41:24.501Z,100141.28
2023-03-06T14:43:51.510Z,100131.56
2023-03-06T14:46:21.489Z,100126.38
2023-03-06T14:48:49.398Z,100131.63
2023-03-06T14:51:20.172Z,100116.97
2023-03-06T14:53:49.374Z,100115.31
2023-03-06T14:56:18.963Z,100115.03
2023-03-06T14:58:55.048Z,100106.47
2023-03-06T15:01:27.998Z,100107.97
2023-03-06T15:03:59.305Z,100096.28
2023-03-06T15:06:33.334Z,100097.97
2023-03-06T15:09:01.864Z,100096.94
2023-03-06T15:11:53.911Z,100090.50
2023-03-06T15:14:28.472Z,100088.09
2023-03-06T15:16:55.537Z,100082.75
2023-03-06T15:19:23.204Z,100099.22
2023-03-06T15:21:52.632Z,100090.34
2023-03-06T15:24:35.400Z,100090.06
2023-03-06T15:27:04.592Z,100093.00
2023-03-06T15:29:32.040Z,100085.13
2023-03-06T15:32:26.053Z,100082.72
2023-03-06T15:35:34.255Z,100079.03
2023-03-06T15:38:19.669Z,100081.09
2023-03-06T15:40:55.437Z,100079.00
2023-03-06T15:43:22.496Z,100074.06
2023-03-06T15:45:49.737Z,100069.06
2023-03-06T15:48:18.175Z,100069.06
2023-03-06T15:50:45.225Z,100063.00
2023-03-06T15:53:13.678Z,100061.00
2023-03-06T15:55:40.709Z,100054.97
2023-03-06T15:58:14.874Z,100052.09
2023-03-06T16:00:42.552Z,100053.72
2023-03-06T16:03:10.373Z,100037.59
2023-03-06T16:05:38.006Z,100047.06
2023-03-06T16:08:05.723Z,100044.16
2023-03-06T16:10:39.480Z,100033.72
2023-03-06T16:13:11.632Z,100036.31
2023-03-06T16:15:40.193Z,100031.56
2023-03-06T16:18:07.323Z,100023.63
2023-03-06T16:20:34.341Z,100028.34
2023-03-06T16:23:01.440Z,100028.13
2023-03-06T16:25:28.795Z,100013.00
2023-03-06T16:27:58.261Z,100017.78
2023-03-06T16:30:26.630Z,100006.59
2023-03-06T16:32:53.713Z,100002.75
2023-03-06T16:35:21.018Z,100009.03
2023-03-06T16:37:48.068Z,100005.16
2023-03-06T16:40:22.226Z,100006.69
2023-03-06T16:42:50.561Z,99997.25
2023-03-06T16:45:20.973Z,99994.44
2023-03-06T16:47:49.310Z,99995.34
2023-03-06T16:50:23.704Z,99999.69
2023-03-06T16:52:51.771Z,99996.31
2023-03-06T16:55:19.286Z,99995.88
2023-03-06T16:57:46.381Z,99993.91
2023-03-06T17:00:16.009Z,99996.59
2023-03-06T17:02:45.047Z,99986.22
2023-03-06T17:05:12.976Z,99987.44
2023-03-06T17:07:40.142Z,99993.09
2023-03-06T17:10:09.645Z,99980.91
2023-03-06T17:12:36.683Z,99982.56
2023-03-06T17:15:04.549Z,99980.03
2023-03-06T17:17:31.697Z,99976.69
2023-03-06T17:20:00.396Z,99975.53
2023-03-06T17:22:27.522Z,99971.66
2023-03-06T17:24:54.908Z,99967.47
2023-03-06T17:27:23.253Z,99970.91
2023-03-06T17:29:50.403Z,99971.63
2023-03-06T17:32:17.328Z,99970.22
2023-03-06T17:34:44.472Z,99967.50
2023-03-06T17:37:12.862Z,99972.63
2023-03-06T17:39:39.953Z,99969.13
2023-03-06T17:42:08.858Z,99970.47
2023-03-06T17:44:37.794Z,99967.75
2023-03-06T17:47:05.514Z,99963.81
2023-03-06T17:49:32.647Z,99963.13
2023-03-06T17:52:06.088Z,99958.84
2023-03-06T17:54:34.594Z,99960.75
2023-03-06T17:57:03.630Z,99957.78
2023-03-06T17:59:31.612Z,99955.19
2023-03-06T18:01:59.172Z,99952.91
2023-03-06T18:04:26.877Z,99948.78
2023-03-06T18:06:54.068Z,99948.47
2023-03-06T18:09:21.151Z,99944.81
2023-03-06T18:11:49.542Z,99936.59
2023-03-06T18:14:16.781Z,99935.06
2023-03-06T18:16:43.800Z,99938.88
2023-03-06T18:19:11.300Z,99931.56
2023-03-06T18:21:39.348Z,99934.34
2023-03-06T18:24:07.270Z,99929.44
2023-03-06T18:26:34.551Z,99921.19
2023-03-06T18:29:04.654Z,99926.81
2023-03-06T18:31:34.705Z,99918.94
2023-03-06T18:34:03.469Z,99922.00
2023-03-06T18:36:32.762Z,99921.75
2023-03-06T18:39:00.970Z,99918.22
2023-03-06T18:41:28.351Z,99913.19
2023-03-06T18:43:57.669Z,99910.31
2023-03-06T18:46:29.188Z,99915.88
2023-03-06T18:48:56.528Z,99911.03
2023-03-06T18:51:23.536Z,99910.38
2023-03-06T18:53:50.551Z,99911.75
2023-03-06T18:56:19.780Z,99908.78
2023-03-06T18:58:47.396Z,99910.31
2023-03-06T19:01:14.941Z,99913.66
2023-03-06T19:03:43.451Z,99915.66
2023-03-06T19:06:12.504Z,99912.16
2023-03-06T19:08:40.684Z,99902.91
2023-03-06T19:11:10.502Z,99903.72
2023-03-06T19:13:38.293Z,99902.91
2023-03-06T19:16:06.748Z,99899.22
2023-03-06T19:18:34.517Z,99901.69
2023-03-06T19:21:10.138Z,99894.84
2023-03-06T19:23:38.135Z,99900.94
2023-03-06T19:26:05.372Z,99898.50
2023-03-06T19:28:32.458Z,99887.69
2023-03-06T19:30:59.495Z,99888.78
2023-03-06T19:33:26.853Z,99890.56
2023-03-06T19:35:54.069Z,99891.75
2023-03-06T19:38:22.395Z,99882.19
2023-03-06T19:40:50.175Z,99885.06
2023-03-06T19:43:17.185Z,99886.13
2023-03-06T19:45:44.772Z,99888.25
2023-03-06T19:48:13.570Z,99892.81
2023-03-06T19:50:41.044Z,99889.91
2023-03-06T19:53:08.524Z,99879.13
2023-03-06T19:55:37.621Z,99883.88
2023-03-06T19:58:04.863Z,99884.41
2023-03-06T20:00:31.994Z,99881.81
2023-03-06T20:02:59.005Z,99882.78
2023-03-06T20:05:26.156Z,99883.16
2023-03-06T20:07:53.485Z,99867.50
2023-03-06T20:10:20.770Z,99880.34
2023-03-06T20:12:49.271Z,99867.84
2023-03-06T20:15:19.058Z,99872.25
2023-03-06T20:17:46.080Z,99858.88
2023-03-06T20:20:13.655Z,99859.22
2023-03-06T20:22:40.751Z,99850.56
2023-03-06T20:25:08.344Z,99854.56
2023-03-06T20:27:35.409Z,99853.19
2023-03-06T20:30:06.953Z,99852.72
2023-03-06T20:32:35.023Z,99859.97
2023-03-06T20:35:02.277Z,99857.22
2023-03-06T20:37:29.304Z,99857.00
2023-03-06T20:39:56.361Z,99861.09
2023-03-06T20:42:23.296Z,99854.16
2023-03-06T20:44:50.226Z,99860.66
2023-03-06T20:47:18.736Z,99854.72
2023-03-06T20:49:45.642Z,99844.59
2023-03-06T20:52:12.717Z,99850.22
2023-03-06T20:54:39.785Z,99852.44
2023-03-06T20:57:06.827Z,99853.28
2023-03-06T20:59:33.743Z,99859.19
2023-03-06T21:02:00.808Z,99854.88
2023-03-06T21:04:29.414Z,99856.56
2023-03-06T21:06:56.407Z,99856.88
2023-03-06T21:09:23.589Z,99853.03
2023-03-06T21:11:51.021Z,99855.66
2023-03-06T21:14:17.999Z,99849.69
2023-03-06T21:16:45.306Z,99862.44
2023-03-06T21:19:12.578Z,99848.69
2023-03-06T21:21:41.401Z,99853.44
2023-03-06T21:24:08.461Z,99857.28
2023-03-06T21:26:35.643Z,99845.25
2023-03-06T21:29:03.729Z,99852.44
2023-03-06T21:31:31.935Z,99844.03
2023-03-06T21:33:59.542Z,99849.63
2023-03-06T21:36:27.132Z,99840.63
2023-03-06T21:38:55.903Z,99834.97
2023-03-06T21:41:24.907Z,99834.06
2023-03-06T21:43:55.225Z,99831.72
2023-03-06T21:46:22.496Z,99832.66
2023-03-06T21:48:49.801Z,99827.31
2023-03-06T21:51:23.557Z,99813.69
2023-03-06T21:53:51.664Z,99831.69
2023-03-06T21:56:22.525Z,99821.28
2023-03-06T21:58:49.581Z,99825.69
2023-03-06T22:01:19.726Z,99824.22
2023-03-06T22:03:46.770Z,99825.56
2023-03-06T22:06:15.949Z,99825.19
2023-03-06T22:08:43.918Z,99813.63
2023-03-06T22:11:12.643Z,99806.25
2023-03-06T22:13:41.972Z,99807.41
2023-03-06T22:16:09.497Z,99803.44
2023-03-06T22:18:36.696Z,99798.34
2023-03-06T22:21:07.454Z,99797.31
2023-03-06T22:23:34.364Z,99796.28
2023-03-06T22:26:02.814Z,99789.91
2023-03-06T22:28:29.920Z,99794.09
2023-03-06T22:31:03.097Z,99793.06
2023-03-06T22:33:30.236Z,99790.03
2023-03-06T22:36:02.587Z,99787.00
2023-03-06T22:38:29.649Z,99791.03
2023-03-06T22:40:57.042Z,99791.97
2023-03-06T22:43:24.270Z,99783.78
2023-03-06T22:45:52.790Z,99782.75
2023-03-06T22:48:21.947Z,99773.66
2023-03-06T22:50:48.898Z,99784.25
2023-03-06T22:53:15.902Z,99780.34
2023-03-06T22:55:42.867Z,99783.50
2023-03-06T22:58:09.774Z,99785.13
2023-03-06T23:00:36.807Z,99776.22
2023-03-06T23:03:04.326Z,99778.66
2023-03-06T23:05:32.686Z,99774.13
2023-03-06T23:07:59.553Z,99774.38
2023-03-06T23:10:26.547Z,99770.72
2023-03-06T23:12:53.614Z,99763.88
2023-03-06T23:15:21.074Z,99767.34
2023-03-06T23:17:48.114Z,99768.44
2023-03-06T23:20:15.311Z,99765.53
2023-03-06T23:22:44.333Z,99764.50
2023-03-06T23:25:11.296Z,99766.06
2023-03-06T23:27:38.566Z,99765.44
2023-03-06T23:30:06.367Z,99762.16
2023-03-06T23:32:34.151Z,99754.88
2023-03-06T23:35:02.009Z,99759.75
2023-03-06T23:37:29.040Z,99758.13
2023-03-06T23:39:57.808Z,99756.44
2023-03-06T23:42:24.913Z,99753.19
2023-03-06T23:44:51.920Z,99757.03
2023-03-06T23:47:20.125Z,99757.00
2023-03-06T23:49:47.134Z,99756.81
2023-03-06T23:52:14.108Z,99750.81
2023-03-06T23:54:41.253Z,99752.38
2023-03-06T23:57:10.003Z,99752.41
2023-03-06T23:59:37.494Z,99747.44
